Hlavní strana
METAR-TAF:

METAR-TAF

Letiště :

Lucembursko, Lucembursko

zeměpisná šířka: 49-37N, zeměpisná délka: 006-13E, výška: 376 m

Aktuální stav počasí

Zpráva byla vytvořena před 33 minutami, v 21:20 UTC
Západní vítr 5 kt
Teplota 20°C
Vlhkost vzduchu 68%
Tlak 1018 hPa
Viditelnost 10 km a více
Žádná oblačnost pod 1500 m, nevyskytují se cumulonimby.

METAR: ELLX 182120Z 26005KT CAVOK 20/14 Q1018 NOSIG

Čas: 23:53 (21:53 UTC)

Předpověď počasí

Zpráva byla vytvořena před 4 hodinami a 53 minutami, v 17:00 UTC
Předpověď platná od 18 v 18 UTC do 19 v 24 UTC
Západojihozápadní vítr 13 kt
Viditelnost 10 km a více
Skoro jasno ve výšce 4500 ft
Pravděpodobnost 30% :
Dočasný
od 18 v 18 UTC do 18 v 21 UTC
Západojihozápadní vítr 15 kt s nárazy do 25 kt
Skoro jasno ve výšce 4000 ft, Vertikální cumulus.
Změna
od 18 v 21 UTC do 18 v 24 UTC
Jihojihozápadní vítr 6 kt

TAF: ELLX 181700Z 1818/1924 25013KT 9999 FEW045 PROB30 TEMPO 1818/1821 25015G25KT FEW040TCU BECMG 1821/1824 20006KT

Stav a předpovědi počasí z více než 4 000 letišť (zprávy METAR a TAF).

Červené a žluté tečky na mapě představují dostupné meteorologické stanice.

Když kurzor umístíte na tečku, zobrazí se název stanice.

Pak kliknutím zobrazíte stav a předpověď počasí.

Chcete-li změnit mapu, kliknutím na zelené tlačítko se znaménkem +mapu přiblížíte, kliknutím na zelené tlačítko se znaménkem – mapu oddálíte a kliknutím na zelené šipky přejdete na sousední mapy.


METAR-TAF: